METAR Data
IDs: Format: Raw Decoded Include TAF

Data at: 1019 UTC 18 Jan 2022

ESCM 180950Z 25013KT CAVOK 01/M07 Q1022